createdAt,value
2018-10-18T00:00:31.921Z,98411.12
2018-10-18T00:03:02.303Z,98406.75
2018-10-18T00:05:32.951Z,98409.05
2018-10-18T00:08:03.337Z,98415.30
2018-10-18T00:10:33.669Z,98412.84
2018-10-18T00:13:04.569Z,98422.84
2018-10-18T00:15:34.835Z,98420.21
2018-10-18T00:18:05.353Z,98416.22
2018-10-18T00:20:35.585Z,98418.91
2018-10-18T00:23:12.481Z,98418.98
2018-10-18T00:25:42.769Z,98418.23
2018-10-18T00:28:13.070Z,98417.38
2018-10-18T00:30:43.313Z,98419.15
2018-10-18T00:33:13.665Z,98419.62
2018-10-18T00:35:43.990Z,98417.13
2018-10-18T00:38:14.354Z,98422.32
2018-10-18T00:40:44.748Z,98421.22
2018-10-18T00:43:15.055Z,98422.11
2018-10-18T00:45:45.323Z,98418.28
2018-10-18T00:48:15.843Z,98414.63
2018-10-18T00:50:46.110Z,98413.42
2018-10-18T00:53:16.428Z,98410.45
2018-10-18T00:55:46.774Z,98417.44
2018-10-18T00:58:17.074Z,98416.68
2018-10-18T01:00:47.366Z,98409.00
2018-10-18T01:03:17.648Z,98411.69
2018-10-18T01:05:48.082Z,98405.70
2018-10-18T01:08:18.414Z,98407.48
2018-10-18T01:10:48.623Z,98402.36
2018-10-18T01:13:18.971Z,98404.89
2018-10-18T01:15:49.277Z,98397.93
2018-10-18T01:18:19.566Z,98399.80
2018-10-18T01:20:49.858Z,98404.66
2018-10-18T01:23:20.242Z,98400.87
2018-10-18T01:25:50.504Z,98404.31
2018-10-18T01:28:20.842Z,98400.42
2018-10-18T01:30:51.159Z,98401.81
2018-10-18T01:33:21.495Z,98398.45
2018-10-18T01:35:51.889Z,98400.64
2018-10-18T01:38:24.022Z,98400.10
2018-10-18T01:40:54.460Z,98400.48
2018-10-18T01:43:25.085Z,98403.98
2018-10-18T01:45:55.634Z,98405.41
2018-10-18T01:48:26.256Z,98405.02
2018-10-18T01:50:56.926Z,98405.53
2018-10-18T01:53:27.469Z,98408.56
2018-10-18T01:55:58.371Z,98404.73
2018-10-18T01:58:28.920Z,98400.87
2018-10-18T02:00:59.841Z,98405.80
2018-10-18T02:03:30.557Z,98406.02
2018-10-18T02:06:01.190Z,98407.41
2018-10-18T02:08:31.894Z,98406.14
2018-10-18T02:11:02.462Z,98408.44
2018-10-18T02:13:33.010Z,98405.80
2018-10-18T02:16:03.350Z,98408.17
2018-10-18T02:18:34.156Z,98407.02
2018-10-18T02:21:05.123Z,98412.17
2018-10-18T02:23:35.586Z,98405.72
2018-10-18T02:26:06.065Z,98410.48
2018-10-18T02:28:36.812Z,98407.93
2018-10-18T02:31:07.386Z,98405.28
2018-10-18T02:33:37.696Z,98402.72
2018-10-18T02:36:08.271Z,98400.95
2018-10-18T02:38:38.932Z,98403.11
2018-10-18T02:41:09.683Z,98403.11
2018-10-18T02:43:40.005Z,98400.57
2018-10-18T02:46:10.324Z,98404.13
2018-10-18T02:48:40.650Z,98400.74
2018-10-18T02:51:11.513Z,98399.03
2018-10-18T02:53:42.087Z,98402.56
2018-10-18T02:56:12.851Z,98407.36
2018-10-18T02:58:43.460Z,98402.64
2018-10-18T03:01:14.152Z,98403.11
2018-10-18T03:03:44.692Z,98398.88
2018-10-18T03:06:15.395Z,98397.99
2018-10-18T03:08:45.787Z,98400.22
2018-10-18T03:11:16.306Z,98396.80
2018-10-18T03:13:47.013Z,98397.25
2018-10-18T03:16:17.662Z,98400.27
2018-10-18T03:18:48.482Z,98401.27
2018-10-18T03:21:18.713Z,98398.34
2018-10-18T03:23:49.064Z,98400.13
2018-10-18T03:26:19.362Z,98398.45
2018-10-18T03:28:49.709Z,98406.30
2018-10-18T03:31:20.041Z,98403.29
2018-10-18T03:33:50.403Z,98402.41
2018-10-18T03:36:21.021Z,98402.84
2018-10-18T03:38:51.321Z,98403.34
2018-10-18T03:41:21.616Z,98399.13
2018-10-18T03:43:52.053Z,98409.94
2018-10-18T03:46:22.433Z,98403.14
2018-10-18T03:48:52.716Z,98399.20
2018-10-18T03:51:23.027Z,98400.08
2018-10-18T03:53:53.280Z,98404.02
2018-10-18T03:56:23.759Z,98400.16
2018-10-18T03:58:54.075Z,98399.72
2018-10-18T04:01:24.443Z,98401.02
2018-10-18T04:03:54.737Z,98404.42
2018-10-18T04:06:25.037Z,98405.30
2018-10-18T04:08:55.377Z,98402.22
2018-10-18T04:11:25.709Z,98403.58
2018-10-18T04:13:56.029Z,98400.49
2018-10-18T04:16:27.109Z,98400.49
2018-10-18T04:18:57.727Z,98402.66
2018-10-18T04:21:27.969Z,98404.91
2018-10-18T04:23:58.408Z,98412.70
2018-10-18T04:26:28.642Z,98418.73
2018-10-18T04:28:59.001Z,98417.39
2018-10-18T04:31:29.301Z,98413.95
2018-10-18T04:33:59.854Z,98423.48
2018-10-18T04:36:30.147Z,98421.73
2018-10-18T04:39:00.647Z,98418.73
2018-10-18T04:41:31.013Z,98425.15
2018-10-18T04:44:01.330Z,98426.86
2018-10-18T04:46:31.635Z,98426.00
2018-10-18T04:49:05.085Z,98430.32
2018-10-18T04:51:37.622Z,98428.22
2018-10-18T04:54:08.862Z,98434.77
2018-10-18T04:56:39.223Z,98437.23
2018-10-18T04:59:09.586Z,98435.98
2018-10-18T05:01:39.992Z,98440.86
2018-10-18T05:04:10.334Z,98432.78
2018-10-18T05:06:40.842Z,98440.56
2018-10-18T05:09:11.182Z,98441.86
2018-10-18T05:11:41.472Z,98442.27
2018-10-18T05:14:11.990Z,98448.75
2018-10-18T05:16:42.298Z,98451.85
2018-10-18T05:19:12.570Z,98452.35
2018-10-18T05:21:42.891Z,98453.72
2018-10-18T05:24:13.246Z,98448.05
2018-10-18T05:26:43.729Z,98451.94
2018-10-18T05:29:14.020Z,98449.77
2018-10-18T05:31:44.556Z,98449.72
2018-10-18T05:34:14.733Z,98454.90
2018-10-18T05:36:45.065Z,98454.58
2018-10-18T05:39:17.723Z,98466.21
2018-10-18T05:41:48.089Z,98462.77
2018-10-18T05:44:19.602Z,98465.80
2018-10-18T05:46:50.015Z,98467.89
2018-10-18T05:49:20.740Z,98464.42
2018-10-18T05:51:51.170Z,98470.81
2018-10-18T05:54:21.532Z,98475.05
2018-10-18T05:56:51.992Z,98478.41
2018-10-18T05:59:22.488Z,98482.23
2018-10-18T06:01:52.801Z,98482.98
2018-10-18T06:04:23.206Z,98486.75
2018-10-18T06:06:53.844Z,98486.68
2018-10-18T06:09:33.070Z,98495.64
2018-10-18T06:12:03.804Z,98494.25
2018-10-18T06:14:34.251Z,98498.89
2018-10-18T06:17:04.636Z,98495.76
2018-10-18T06:19:35.014Z,98499.05
2018-10-18T06:22:05.592Z,98503.70
2018-10-18T06:24:35.964Z,98502.73
2018-10-18T06:27:06.518Z,98504.86
2018-10-18T06:29:36.896Z,98502.19
2018-10-18T06:32:07.436Z,98498.26
2018-10-18T06:34:37.915Z,98497.81
2018-10-18T06:37:08.437Z,98503.39
2018-10-18T06:39:38.796Z,98505.54
2018-10-18T06:42:09.807Z,98508.45
2018-10-18T06:44:40.237Z,98517.47
2018-10-18T06:47:10.738Z,98520.39
2018-10-18T06:49:41.170Z,98530.19
2018-10-18T06:52:11.819Z,98524.02
2018-10-18T06:54:42.449Z,98518.26
2018-10-18T06:57:13.094Z,98523.60
2018-10-18T06:59:43.740Z,98523.02
2018-10-18T07:02:14.089Z,98522.33
2018-10-18T07:04:44.529Z,98529.19
2018-10-18T07:07:14.973Z,98525.77
2018-10-18T07:09:45.280Z,98518.45
2018-10-18T07:12:15.711Z,98523.03
2018-10-18T07:14:46.041Z,98527.59
2018-10-18T07:17:16.341Z,98525.83
2018-10-18T07:19:46.775Z,98531.47
2018-10-18T07:22:17.129Z,98529.23
2018-10-18T07:24:47.631Z,98535.39
2018-10-18T07:27:18.057Z,98529.89
2018-10-18T07:29:48.400Z,98539.49
2018-10-18T07:32:18.743Z,98536.48
2018-10-18T07:34:49.237Z,98540.59
2018-10-18T07:37:19.580Z,98542.81
2018-10-18T07:39:49.961Z,98542.11
2018-10-18T07:42:20.910Z,98549.56
2018-10-18T07:44:51.270Z,98547.16
2018-10-18T07:47:21.687Z,98551.91
2018-10-18T07:49:52.011Z,98546.34
2018-10-18T07:52:23.186Z,98552.61
2018-10-18T07:54:53.545Z,98563.27
2018-10-18T07:57:23.863Z,98566.66
2018-10-18T07:59:54.128Z,98567.97
2018-10-18T08:02:24.458Z,98566.54
2018-10-18T08:04:54.775Z,98569.09
2018-10-18T08:07:25.231Z,98573.59
2018-10-18T08:09:55.578Z,98579.30
2018-10-18T08:12:25.969Z,98575.30
2018-10-18T08:14:56.373Z,98576.79
2018-10-18T08:17:26.842Z,98575.05
2018-10-18T08:19:57.147Z,98578.17
2018-10-18T08:22:27.544Z,98568.53
2018-10-18T08:24:58.070Z,98575.44
2018-10-18T08:27:28.415Z,98565.34
2018-10-18T08:29:58.893Z,98561.37
2018-10-18T08:32:29.246Z,98561.14
2018-10-18T08:34:59.635Z,98562.03
2018-10-18T08:37:30.061Z,98566.35
2018-10-18T08:40:00.406Z,98563.91
2018-10-18T08:42:30.759Z,98556.05
2018-10-18T08:45:01.069Z,98548.41
2018-10-18T08:47:31.378Z,98554.24
2018-10-18T08:50:01.914Z,98547.39
2018-10-18T08:52:32.168Z,98551.78
2018-10-18T08:55:02.575Z,98547.38
2018-10-18T08:57:32.873Z,98541.70
2018-10-18T09:00:03.272Z,98536.95
2018-10-18T09:02:33.569Z,98543.52
2018-10-18T09:05:04.163Z,98543.48
2018-10-18T09:07:34.466Z,98536.66
2018-10-18T09:10:05.365Z,98537.28
2018-10-18T09:12:36.078Z,98527.66
2018-10-18T09:15:07.816Z,98527.95
2018-10-18T09:17:38.550Z,98529.24
2018-10-18T09:20:09.014Z,98522.46
2018-10-18T09:22:39.318Z,98524.04
2018-10-18T09:25:10.881Z,98526.75
2018-10-18T09:27:41.382Z,98516.08
2018-10-18T09:30:13.206Z,98514.75
2018-10-18T09:32:43.864Z,98519.02
2018-10-18T09:35:14.190Z,98512.84
2018-10-18T09:37:44.556Z,98512.21
2018-10-18T09:40:15.022Z,98520.17
2018-10-18T09:42:45.285Z,98510.21
2018-10-18T09:45:15.610Z,98501.40
2018-10-18T09:47:45.945Z,98501.36
2018-10-18T09:50:16.278Z,98495.72
2018-10-18T09:52:46.665Z,98496.39
2018-10-18T09:55:17.063Z,98491.60
2018-10-18T09:57:47.447Z,98492.08
2018-10-18T10:00:23.055Z,98486.23
2018-10-18T10:02:58.832Z,98496.52
2018-10-18T10:05:29.324Z,98495.77
2018-10-18T10:07:59.786Z,98488.41
2018-10-18T10:10:30.177Z,98486.17
2018-10-18T10:13:00.755Z,98481.98
2018-10-18T10:15:31.218Z,98482.54
2018-10-18T10:18:02.110Z,98477.80
2018-10-18T10:20:32.691Z,98467.91
2018-10-18T10:23:03.259Z,98472.33
2018-10-18T10:25:33.723Z,98468.67
2018-10-18T10:28:04.200Z,98470.09
2018-10-18T10:30:34.640Z,98467.36
2018-10-18T10:33:05.321Z,98465.55
2018-10-18T10:35:35.655Z,98462.97
2018-10-18T10:38:06.097Z,98465.70
2018-10-18T10:40:36.510Z,98461.63
2018-10-18T10:43:07.251Z,98454.69
2018-10-18T10:45:37.643Z,98448.91
2018-10-18T10:48:08.253Z,98446.61
2018-10-18T10:50:38.574Z,98441.75
2018-10-18T10:53:08.944Z,98440.61
2018-10-18T10:55:39.377Z,98441.61
2018-10-18T10:58:09.799Z,98439.67
2018-10-18T11:01:27.309Z,98432.13
2018-10-18T11:03:59.257Z,98431.27
2018-10-18T11:06:30.845Z,98423.42
2018-10-18T11:09:01.207Z,98427.27
2018-10-18T11:11:31.739Z,98412.91
2018-10-18T11:14:02.184Z,98422.58
2018-10-18T11:16:32.678Z,98419.87
2018-10-18T11:19:03.426Z,98419.11
2018-10-18T11:21:37.306Z,98410.44
2018-10-18T11:24:11.270Z,98407.95
2018-10-18T11:26:42.302Z,98406.72
2018-10-18T11:29:16.288Z,98399.47
2018-10-18T11:31:47.587Z,98403.80
2018-10-18T11:34:18.648Z,98398.50
2018-10-18T11:36:54.484Z,98399.19
2018-10-18T11:39:25.329Z,98396.16
2018-10-18T11:41:56.065Z,98397.00
2018-10-18T11:44:31.976Z,98392.95
2018-10-18T11:47:02.703Z,98400.10
2018-10-18T11:49:33.163Z,98387.27
2018-10-18T11:52:03.654Z,98390.42
2018-10-18T11:54:34.104Z,98381.09
2018-10-18T11:57:04.497Z,98383.55
2018-10-18T11:59:34.967Z,98382.39
2018-10-18T12:02:06.019Z,98381.67
2018-10-18T12:04:36.510Z,98378.12
2018-10-18T12:07:07.020Z,98364.56
2018-10-18T12:09:37.571Z,98377.37
2018-10-18T12:12:09.143Z,98372.19
2018-10-18T12:14:39.767Z,98369.98
2018-10-18T12:17:10.469Z,98357.81
2018-10-18T12:19:40.848Z,98350.48
2018-10-18T12:22:11.270Z,98349.23
2018-10-18T12:24:41.676Z,98353.16
2018-10-18T12:27:12.020Z,98347.73
2018-10-18T12:29:42.604Z,98352.16
2018-10-18T12:32:13.159Z,98351.09
2018-10-18T12:34:43.552Z,98352.63
2018-10-18T12:37:14.018Z,98352.00
2018-10-18T12:39:44.540Z,98350.22
2018-10-18T12:42:15.052Z,98346.06
2018-10-18T12:44:45.467Z,98342.99
2018-10-18T12:47:16.045Z,98347.09
2018-10-18T12:49:46.582Z,98346.56
2018-10-18T12:52:17.104Z,98353.66
2018-10-18T12:54:47.628Z,98348.94
2018-10-18T12:57:18.067Z,98350.42
2018-10-18T12:59:48.620Z,98346.95
2018-10-18T13:02:19.104Z,98345.13
2018-10-18T13:04:49.646Z,98345.54
2018-10-18T13:07:20.060Z,98345.95
2018-10-18T13:09:50.622Z,98343.81
2018-10-18T13:12:21.254Z,98348.38
2018-10-18T13:14:51.592Z,98344.45
2018-10-18T13:17:21.982Z,98337.44
2018-10-18T13:19:52.767Z,98331.55
2018-10-18T13:22:23.204Z,98335.39
2018-10-18T13:24:53.673Z,98340.13
2018-10-18T13:27:24.140Z,98336.59
2018-10-18T13:29:54.651Z,98337.31
2018-10-18T13:32:25.092Z,98335.56
2018-10-18T13:34:55.630Z,98334.72
2018-10-18T13:37:26.100Z,98333.54
2018-10-18T13:39:56.537Z,98339.59
2018-10-18T13:42:26.944Z,98337.05
2018-10-18T13:44:57.425Z,98340.23
2018-10-18T13:47:27.846Z,98340.66
2018-10-18T13:49:58.363Z,98351.24
2018-10-18T13:52:28.789Z,98344.23
2018-10-18T13:54:59.302Z,98344.23
2018-10-18T13:57:29.707Z,98346.67
2018-10-18T14:00:23.583Z,98347.25
2018-10-18T14:02:54.684Z,98350.23
2018-10-18T14:05:25.805Z,98346.58
2018-10-18T14:07:56.684Z,98346.07
2018-10-18T14:10:27.128Z,98340.52
2018-10-18T14:12:57.789Z,98332.82
2018-10-18T14:15:28.350Z,98347.00
2018-10-18T14:17:58.884Z,98339.59
2018-10-18T14:20:29.262Z,98342.86
2018-10-18T14:22:59.697Z,98344.17
2018-10-18T14:25:30.232Z,98346.94
2018-10-18T14:28:00.778Z,98341.27
2018-10-18T14:30:31.377Z,98349.72
2018-10-18T14:33:01.713Z,98348.39
2018-10-18T14:35:32.460Z,98343.84
2018-10-18T14:38:02.868Z,98346.20
2018-10-18T14:40:33.191Z,98349.68
2018-10-18T14:43:03.728Z,98351.81
2018-10-18T14:45:34.476Z,98356.09
2018-10-18T14:48:05.468Z,98354.69
2018-10-18T14:50:35.927Z,98350.55
2018-10-18T14:53:06.378Z,98356.68
2018-10-18T14:55:36.749Z,98357.90
2018-10-18T14:58:07.306Z,98356.66
2018-10-18T15:00:38.860Z,98354.62
2018-10-18T15:03:09.397Z,98360.84
2018-10-18T15:05:39.922Z,98366.32
2018-10-18T15:08:10.387Z,98361.30
2018-10-18T15:10:40.792Z,98361.48
2018-10-18T15:13:11.289Z,98362.95
2018-10-18T15:15:41.625Z,98362.95
2018-10-18T15:18:12.053Z,98357.98
2018-10-18T15:20:42.392Z,98360.23
2018-10-18T15:23:12.878Z,98353.59
2018-10-18T15:25:43.666Z,98353.83
2018-10-18T15:28:13.992Z,98357.70
2018-10-18T15:30:44.355Z,98357.05
2018-10-18T15:33:14.808Z,98354.25
2018-10-18T15:35:45.245Z,98346.84
2018-10-18T15:38:15.912Z,98360.09
2018-10-18T15:40:46.090Z,98361.64
2018-10-18T15:43:16.471Z,98362.70
2018-10-18T15:45:46.797Z,98361.76
2018-10-18T15:48:17.172Z,98369.75
2018-10-18T15:50:47.634Z,98369.77
2018-10-18T15:53:18.050Z,98371.34
2018-10-18T15:55:48.445Z,98368.39
2018-10-18T15:58:18.769Z,98375.31
2018-10-18T16:00:49.081Z,98376.45
2018-10-18T16:03:19.718Z,98378.94
2018-10-18T16:05:50.005Z,98376.98
2018-10-18T16:08:20.353Z,98380.81
2018-10-18T16:10:50.741Z,98381.88
2018-10-18T16:13:21.160Z,98380.60
2018-10-18T16:15:51.542Z,98383.56
2018-10-18T16:18:22.773Z,98382.32
2018-10-18T16:20:53.207Z,98393.69
2018-10-18T16:23:23.801Z,98397.41
2018-10-18T16:25:54.318Z,98402.95
2018-10-18T16:28:24.676Z,98409.13
2018-10-18T16:30:55.186Z,98408.50
2018-10-18T16:33:25.545Z,98416.32
2018-10-18T16:35:55.939Z,98421.16
2018-10-18T16:38:26.468Z,98421.75
2018-10-18T16:40:56.915Z,98429.77
2018-10-18T16:43:27.695Z,98435.91
2018-10-18T16:45:58.870Z,98438.09
2018-10-18T16:48:29.343Z,98443.09
2018-10-18T16:50:59.776Z,98444.31
2018-10-18T16:53:33.226Z,98449.13
2018-10-18T16:56:04.390Z,98446.22
2018-10-18T16:58:35.086Z,98456.75
2018-10-18T17:01:05.421Z,98460.03
2018-10-18T17:03:35.832Z,98465.39
2018-10-18T17:06:06.241Z,98472.18
2018-10-18T17:08:36.687Z,98473.94
2018-10-18T17:11:07.117Z,98484.25
2018-10-18T17:13:37.674Z,98495.24
2018-10-18T17:16:08.150Z,98494.86
2018-10-18T17:18:38.479Z,98494.48
2018-10-18T17:21:08.883Z,98500.95
2018-10-18T17:23:39.257Z,98503.37
2018-10-18T17:26:09.627Z,98506.83
2018-10-18T17:28:39.920Z,98509.00
2018-10-18T17:31:10.205Z,98500.08
2018-10-18T17:33:40.688Z,98507.83
2018-10-18T17:36:10.977Z,98512.06
2018-10-18T17:38:41.364Z,98515.05
2018-10-18T17:41:11.741Z,98513.03
2018-10-18T17:43:42.096Z,98511.69
2018-10-18T17:46:12.574Z,98520.37
2018-10-18T17:48:42.903Z,98526.30
2018-10-18T17:51:13.552Z,98525.84
2018-10-18T17:53:43.920Z,98528.51
2018-10-18T17:56:14.310Z,98524.53
2018-10-18T17:58:44.857Z,98525.34
2018-10-18T18:01:15.232Z,98524.83
2018-10-18T18:03:45.653Z,98524.02
2018-10-18T18:06:16.212Z,98523.78
2018-10-18T18:08:46.452Z,98524.89
2018-10-18T18:11:16.799Z,98527.39
2018-10-18T18:13:47.202Z,98526.38
2018-10-18T18:16:17.624Z,98536.43
2018-10-18T18:18:48.204Z,98541.23
2018-10-18T18:21:18.568Z,98542.48
2018-10-18T18:23:48.990Z,98543.66
2018-10-18T18:26:19.419Z,98551.92
2018-10-18T18:28:49.750Z,98550.83
2018-10-18T18:31:20.053Z,98556.33
2018-10-18T18:33:50.442Z,98560.97
2018-10-18T18:36:20.819Z,98565.72
2018-10-18T18:38:51.820Z,98569.78
2018-10-18T18:41:22.409Z,98574.88
2018-10-18T18:43:52.875Z,98571.41
2018-10-18T18:46:23.303Z,98574.41
2018-10-18T18:48:53.737Z,98580.33
2018-10-18T18:51:24.088Z,98588.56
2018-10-18T18:53:54.418Z,98587.95
2018-10-18T18:56:24.739Z,98585.08
2018-10-18T18:58:55.031Z,98585.77
2018-10-18T19:01:26.098Z,98592.91
2018-10-18T19:03:56.482Z,98588.76
2018-10-18T19:06:26.933Z,98587.64
2018-10-18T19:08:57.335Z,98592.16
2018-10-18T19:11:27.699Z,98601.98
2018-10-18T19:13:58.187Z,98603.00
2018-10-18T19:16:28.513Z,98612.70
2018-10-18T19:18:58.886Z,98615.67
2018-10-18T19:21:29.220Z,98616.63
2018-10-18T19:23:59.703Z,98608.34
2018-10-18T19:26:30.075Z,98613.86
2018-10-18T19:29:00.456Z,98615.00
2018-10-18T19:31:31.524Z,98615.25
2018-10-18T19:34:01.903Z,98614.56
2018-10-18T19:36:32.238Z,98617.30
2018-10-18T19:39:02.635Z,98617.12
2018-10-18T19:41:32.902Z,98619.41
2018-10-18T19:44:03.419Z,98623.13
2018-10-18T19:46:33.911Z,98623.80
2018-10-18T19:49:04.341Z,98628.70
2018-10-18T19:51:34.677Z,98627.78
2018-10-18T19:54:05.241Z,98634.45
2018-10-18T19:56:35.669Z,98639.74
2018-10-18T19:59:06.089Z,98634.66
2018-10-18T20:01:36.522Z,98643.94
2018-10-18T20:04:07.047Z,98642.39
2018-10-18T20:06:37.435Z,98648.59
2018-10-18T20:09:10.273Z,98648.47
2018-10-18T20:11:40.531Z,98647.28
2018-10-18T20:14:10.971Z,98650.08
2018-10-18T20:16:41.273Z,98658.64
2018-10-18T20:19:11.650Z,98656.81
2018-10-18T20:21:41.951Z,98660.20
2018-10-18T20:24:12.435Z,98655.03
2018-10-18T20:26:43.046Z,98657.45
2018-10-18T20:29:13.439Z,98655.55
2018-10-18T20:31:43.772Z,98658.48
2018-10-18T20:34:14.389Z,98656.58
2018-10-18T20:36:44.773Z,98662.03
2018-10-18T20:39:15.177Z,98657.85
2018-10-18T20:41:45.463Z,98658.42
2018-10-18T20:44:15.795Z,98666.05
2018-10-18T20:46:46.206Z,98663.69
2018-10-18T20:49:16.558Z,98666.86
2018-10-18T20:51:46.848Z,98655.36
2018-10-18T20:54:17.557Z,98659.47
2018-10-18T20:56:47.961Z,98651.45
2018-10-18T20:59:18.541Z,98658.32
2018-10-18T21:01:48.813Z,98659.87
2018-10-18T21:04:19.161Z,98658.22
2018-10-18T21:06:49.487Z,98657.05
2018-10-18T21:09:19.825Z,98655.06
2018-10-18T21:11:50.071Z,98662.18
2018-10-18T21:14:20.681Z,98665.03
2018-10-18T21:16:51.077Z,98669.91
2018-10-18T21:19:21.393Z,98668.75
2018-10-18T21:21:51.896Z,98671.04
2018-10-18T21:24:22.152Z,98672.75
2018-10-18T21:26:52.405Z,98674.55
2018-10-18T21:29:22.689Z,98675.19
2018-10-18T21:31:53.011Z,98671.02
2018-10-18T21:34:23.323Z,98672.45
2018-10-18T21:37:00.322Z,98672.91
2018-10-18T21:39:33.209Z,98668.59
2018-10-18T21:42:04.201Z,98666.89
2018-10-18T21:44:36.490Z,98664.91
2018-10-18T21:47:06.934Z,98664.61
2018-10-18T21:49:37.258Z,98671.36
2018-10-18T21:52:07.536Z,98664.98
2018-10-18T21:54:37.864Z,98665.56
2018-10-18T21:57:08.252Z,98667.72
2018-10-18T21:59:38.723Z,98665.96
2018-10-18T22:02:09.164Z,98669.06
2018-10-18T22:04:39.556Z,98671.67
2018-10-18T22:07:09.816Z,98667.77
2018-10-18T22:09:40.082Z,98662.95
2018-10-18T22:12:10.406Z,98659.53
2018-10-18T22:14:42.382Z,98669.79
2018-10-18T22:17:12.681Z,98669.34
2018-10-18T22:19:43.061Z,98671.23
2018-10-18T22:22:13.356Z,98672.77
2018-10-18T22:24:43.709Z,98674.56
2018-10-18T22:27:14.048Z,98668.70
2018-10-18T22:29:44.358Z,98676.30
2018-10-18T22:32:14.727Z,98673.09
2018-10-18T22:34:45.047Z,98674.70
2018-10-18T22:37:15.397Z,98677.48
2018-10-18T22:39:45.643Z,98675.45
2018-10-18T22:42:15.973Z,98672.52
2018-10-18T22:44:46.347Z,98670.66
2018-10-18T22:47:16.614Z,98668.30
2018-10-18T22:49:46.919Z,98675.80
2018-10-18T22:52:17.256Z,98671.03
2018-10-18T22:54:47.679Z,98670.70
2018-10-18T22:57:17.979Z,98682.06
2018-10-18T22:59:48.377Z,98679.22
2018-10-18T23:02:18.831Z,98676.73
2018-10-18T23:04:49.165Z,98679.98
2018-10-18T23:07:19.423Z,98681.08
2018-10-18T23:09:52.780Z,98680.71
2018-10-18T23:12:23.090Z,98674.28
2018-10-18T23:14:53.493Z,98675.73
2018-10-18T23:17:23.707Z,98672.44
2018-10-18T23:19:53.943Z,98669.95
2018-10-18T23:22:24.269Z,98670.88
2018-10-18T23:24:54.719Z,98669.25
2018-10-18T23:27:24.021Z,98670.14
2018-10-18T23:29:54.327Z,98670.70
2018-10-18T23:32:24.625Z,98671.63
2018-10-18T23:34:55.003Z,98673.38
2018-10-18T23:37:25.424Z,98678.22
2018-10-18T23:39:55.742Z,98674.72
2018-10-18T23:42:26.084Z,98671.48
2018-10-18T23:44:56.441Z,98668.09
2018-10-18T23:47:26.831Z,98667.69
2018-10-18T23:49:57.182Z,98665.05
2018-10-18T23:52:27.562Z,98655.31
2018-10-18T23:54:57.895Z,98662.79
2018-10-18T23:57:28.317Z,98665.84
2018-10-18T23:59:58.592Z,98666.25
